createdAt,value
2023-02-12T00:00:21.132Z,20.88
2023-02-12T00:02:47.817Z,18.23
2023-02-12T00:05:16.568Z,16.48
2023-02-12T00:07:43.294Z,16.55
2023-02-12T00:10:09.927Z,14.25
2023-02-12T00:12:36.615Z,17.83
2023-02-12T00:15:03.293Z,19.80
2023-02-12T00:17:29.954Z,22.33
2023-02-12T00:19:56.618Z,14.25
2023-02-12T00:22:23.306Z,12.45
2023-02-12T00:24:49.973Z,18.88
2023-02-12T00:27:16.666Z,15.93
2023-02-12T00:29:43.302Z,17.67
2023-02-12T00:32:09.950Z,16.42
2023-02-12T00:34:36.629Z,13.07
2023-02-12T00:37:03.309Z,16.85
2023-02-12T00:39:29.910Z,15.00
2023-02-12T00:41:56.562Z,12.40
2023-02-12T00:44:23.220Z,15.93
2023-02-12T00:46:49.960Z,13.93
2023-02-12T00:49:16.715Z,17.77
2023-02-12T00:51:43.382Z,16.05
2023-02-12T00:54:09.992Z,14.93
2023-02-12T00:56:36.729Z,13.57
2023-02-12T00:59:03.400Z,16.08
2023-02-12T01:01:30.098Z,15.73
2023-02-12T01:03:56.820Z,16.75
2023-02-12T01:06:23.559Z,13.38
2023-02-12T01:08:50.160Z,14.32
2023-02-12T01:11:16.801Z,14.85
2023-02-12T01:13:43.483Z,17.08
2023-02-12T01:16:10.946Z,15.20
2023-02-12T01:18:37.780Z,14.10
2023-02-12T01:21:04.516Z,13.60
2023-02-12T01:23:31.143Z,12.45
2023-02-12T01:25:57.921Z,14.02
2023-02-12T01:28:24.912Z,15.50
2023-02-12T01:30:51.677Z,15.05
2023-02-12T01:33:18.326Z,13.98
2023-02-12T01:35:45.024Z,14.52
2023-02-12T01:38:11.667Z,14.18
2023-02-12T01:40:38.298Z,14.38
2023-02-12T01:43:04.968Z,18.95
2023-02-12T01:45:31.563Z,17.73
2023-02-12T01:47:58.595Z,20.85
2023-02-12T01:50:25.257Z,17.65
2023-02-12T01:52:51.900Z,11.80
2023-02-12T01:55:18.563Z,15.68
2023-02-12T01:57:45.216Z,17.55
2023-02-12T02:00:11.856Z,14.55
2023-02-12T02:02:39.299Z,18.80
2023-02-12T02:05:05.958Z,20.20
2023-02-12T02:07:32.634Z,15.82
2023-02-12T02:09:59.327Z,15.38
2023-02-12T02:12:44.785Z,15.32
2023-02-12T02:15:11.411Z,19.80
2023-02-12T02:17:37.973Z,11.63
2023-02-12T02:20:04.605Z,17.17
2023-02-12T02:22:31.226Z,14.63
2023-02-12T02:24:57.879Z,16.08
2023-02-12T02:27:24.536Z,12.52
2023-02-12T02:29:51.129Z,14.65
2023-02-12T02:32:17.766Z,16.60
2023-02-12T02:34:44.481Z,13.02
2023-02-12T02:37:11.126Z,13.73
2023-02-12T02:39:39.007Z,11.95
2023-02-12T02:42:05.761Z,13.10
2023-02-12T02:44:32.423Z,12.27
2023-02-12T02:46:59.387Z,13.85
2023-02-12T02:49:26.158Z,12.95
2023-02-12T02:51:52.811Z,27.13
2023-02-12T02:54:19.715Z,13.90
2023-02-12T02:56:46.392Z,20.85
2023-02-12T02:59:13.037Z,13.07
2023-02-12T03:01:39.738Z,17.15
2023-02-12T03:04:06.507Z,13.80
2023-02-12T03:06:33.180Z,11.23
2023-02-12T03:08:59.942Z,16.88
2023-02-12T03:11:26.604Z,19.35
2023-02-12T03:13:53.270Z,18.50
2023-02-12T03:16:19.972Z,14.73
2023-02-12T03:18:46.657Z,14.48
2023-02-12T03:21:13.368Z,20.20
2023-02-12T03:23:40.038Z,18.80
2023-02-12T03:26:06.683Z,15.63
2023-02-12T03:28:33.398Z,15.20
2023-02-12T03:31:00.121Z,16.40
2023-02-12T03:33:28.868Z,16.00
2023-02-12T03:35:55.847Z,14.23
2023-02-12T03:38:22.706Z,13.27
2023-02-12T03:40:49.332Z,15.20
2023-02-12T03:43:16.019Z,19.63
2023-02-12T03:45:42.836Z,14.98
2023-02-12T03:48:09.571Z,23.98
2023-02-12T03:50:36.276Z,14.90
2023-02-12T03:53:02.883Z,15.20
2023-02-12T03:55:29.610Z,13.27
2023-02-12T03:57:56.235Z,17.42
2023-02-12T04:00:22.872Z,13.73
2023-02-12T04:02:49.515Z,15.13
2023-02-12T04:05:16.153Z,14.05
2023-02-12T04:07:42.794Z,14.43
2023-02-12T04:10:09.438Z,20.48
2023-02-12T04:12:36.097Z,16.25
2023-02-12T04:15:02.701Z,13.88
2023-02-12T04:17:29.356Z,18.83
2023-02-12T04:19:56.170Z,13.75
2023-02-12T04:22:22.825Z,15.38
2023-02-12T04:24:49.481Z,14.05
2023-02-12T04:27:16.192Z,17.85
2023-02-12T04:29:42.826Z,13.35
2023-02-12T04:32:09.452Z,13.82
2023-02-12T04:34:36.082Z,13.02
2023-02-12T04:37:02.735Z,18.80
2023-02-12T04:39:29.342Z,17.67
2023-02-12T04:41:56.003Z,14.70
2023-02-12T04:44:22.738Z,12.30
2023-02-12T04:46:49.426Z,15.30
2023-02-12T04:49:16.451Z,14.23
2023-02-12T04:51:43.214Z,16.25
2023-02-12T04:54:09.855Z,19.60
2023-02-12T04:56:36.541Z,13.00
2023-02-12T04:59:03.213Z,14.25
2023-02-12T05:01:31.453Z,14.15
2023-02-12T05:03:58.230Z,12.45
2023-02-12T05:06:24.928Z,13.43
2023-02-12T05:08:51.607Z,12.70
2023-02-12T05:11:18.273Z,9.80
2023-02-12T05:13:44.950Z,11.38
2023-02-12T05:16:11.713Z,9.88
2023-02-12T05:18:38.435Z,12.63
2023-02-12T05:21:05.188Z,12.85
2023-02-12T05:23:31.820Z,11.68
2023-02-12T05:25:58.443Z,11.07
2023-02-12T05:28:25.121Z,14.38
2023-02-12T05:30:51.911Z,13.38
2023-02-12T05:33:18.632Z,11.05
2023-02-12T05:35:45.260Z,10.50
2023-02-12T05:38:11.845Z,11.43
2023-02-12T05:40:40.337Z,14.02
2023-02-12T05:43:06.977Z,10.77
2023-02-12T05:45:33.606Z,14.10
2023-02-12T05:48:00.243Z,11.02
2023-02-12T05:50:26.840Z,9.93
2023-02-12T05:52:53.455Z,12.48
2023-02-12T05:55:20.053Z,11.45
2023-02-12T05:57:46.771Z,11.68
2023-02-12T06:00:13.370Z,12.65
2023-02-12T06:02:40.110Z,11.25
2023-02-12T06:05:06.858Z,13.27
2023-02-12T06:07:33.502Z,23.13
2023-02-12T06:10:00.110Z,8.55
2023-02-12T06:12:26.743Z,11.57
2023-02-12T06:14:53.445Z,15.02
2023-02-12T06:17:20.117Z,11.98
2023-02-12T06:19:46.892Z,11.70
2023-02-12T06:22:13.577Z,11.70
2023-02-12T06:24:40.233Z,14.38
2023-02-12T06:27:06.892Z,14.40
2023-02-12T06:29:33.533Z,14.55
2023-02-12T06:32:00.294Z,10.35
2023-02-12T06:34:27.055Z,11.43
2023-02-12T06:36:53.736Z,13.30
2023-02-12T06:39:20.484Z,15.45
2023-02-12T06:41:47.129Z,11.30
2023-02-12T06:44:13.745Z,11.55
2023-02-12T06:46:40.517Z,12.05
2023-02-12T06:49:07.249Z,14.95
2023-02-12T06:51:33.987Z,14.25
2023-02-12T06:54:00.682Z,8.95
2023-02-12T06:56:27.422Z,13.02
2023-02-12T06:58:55.067Z,11.23
2023-02-12T07:01:21.813Z,10.57
2023-02-12T07:03:48.512Z,13.38
2023-02-12T07:06:15.359Z,13.68
2023-02-12T07:08:42.042Z,14.35
2023-02-12T07:11:08.933Z,13.32
2023-02-12T07:13:35.728Z,13.50
2023-02-12T07:16:02.427Z,10.88
2023-02-12T07:18:29.145Z,17.23
2023-02-12T07:20:55.777Z,12.55
2023-02-12T07:23:22.484Z,15.30
2023-02-12T07:25:49.201Z,8.85
2023-02-12T07:28:15.885Z,13.82
2023-02-12T07:30:42.819Z,10.70
2023-02-12T07:33:09.572Z,10.63
2023-02-12T07:35:36.211Z,10.93
2023-02-12T07:38:02.835Z,11.63
2023-02-12T07:40:29.470Z,10.50
2023-02-12T07:42:56.200Z,10.82
2023-02-12T07:45:22.991Z,9.57
2023-02-12T07:47:50.113Z,7.65
2023-02-12T07:50:17.031Z,9.27
2023-02-12T07:52:43.763Z,7.50
2023-02-12T07:55:10.395Z,8.63
2023-02-12T07:57:37.068Z,7.60
2023-02-12T08:00:03.790Z,7.60
2023-02-12T08:02:30.553Z,10.35
2023-02-12T08:04:57.340Z,8.20
2023-02-12T08:07:24.082Z,9.40
2023-02-12T08:09:51.163Z,13.75
2023-02-12T08:12:17.979Z,10.25
2023-02-12T08:14:44.632Z,13.05
2023-02-12T08:17:11.356Z,10.68
2023-02-12T08:19:38.262Z,9.15
2023-02-12T08:22:06.604Z,9.32
2023-02-12T08:24:33.254Z,10.30
2023-02-12T08:26:59.999Z,10.50
2023-02-12T08:29:26.664Z,7.70
2023-02-12T08:31:53.369Z,7.40
2023-02-12T08:34:20.091Z,9.57
2023-02-12T08:36:46.796Z,5.32
2023-02-12T08:39:13.496Z,5.50
2023-02-12T08:41:42.388Z,7.20
2023-02-12T08:44:09.081Z,11.68
2023-02-12T08:46:35.816Z,9.95
2023-02-12T08:49:02.560Z,6.88
2023-02-12T08:51:29.404Z,8.20
2023-02-12T08:53:56.002Z,8.02
2023-02-12T08:56:22.683Z,7.38
2023-02-12T08:58:49.335Z,9.50
2023-02-12T09:01:19.083Z,7.40
2023-02-12T09:03:45.872Z,8.13
2023-02-12T09:06:12.602Z,10.52
2023-02-12T09:08:39.310Z,7.25
2023-02-12T09:11:06.206Z,7.50
2023-02-12T09:13:32.899Z,7.95
2023-02-12T09:15:59.924Z,8.25
2023-02-12T09:18:26.631Z,9.00
2023-02-12T09:20:53.324Z,8.40
2023-02-12T09:23:20.103Z,7.57
2023-02-12T09:25:46.805Z,7.57
2023-02-12T09:28:13.628Z,7.20
2023-02-12T09:30:40.288Z,4.80
2023-02-12T09:33:06.999Z,5.72
2023-02-12T09:35:33.702Z,8.48
2023-02-12T09:38:00.477Z,4.88
2023-02-12T09:40:27.194Z,7.63
2023-02-12T09:42:54.037Z,5.78
2023-02-12T09:45:20.751Z,6.38
2023-02-12T09:47:47.463Z,6.35
2023-02-12T09:50:14.260Z,6.65
2023-02-12T09:52:40.912Z,4.28
2023-02-12T09:55:07.646Z,4.22
2023-02-12T09:57:35.903Z,3.88
2023-02-12T10:00:02.708Z,4.57
2023-02-12T10:02:29.480Z,3.75
2023-02-12T10:05:01.526Z,3.53
2023-02-12T10:07:29.009Z,9.80
2023-02-12T10:09:55.652Z,3.47
2023-02-12T10:12:22.341Z,7.47
2023-02-12T10:14:49.019Z,3.03
2023-02-12T10:17:15.856Z,3.85
2023-02-12T10:19:42.559Z,3.88
2023-02-12T10:22:09.211Z,2.45
2023-02-12T10:24:36.039Z,2.50
2023-02-12T10:27:02.667Z,4.05
2023-02-12T10:29:29.331Z,1.67
2023-02-12T10:34:22.775Z,2.28
2023-02-12T10:36:49.739Z,2.40
2023-02-12T10:39:16.428Z,2.42
2023-02-12T10:41:43.094Z,2.28
2023-02-12T10:44:09.810Z,2.58
2023-02-12T10:46:36.558Z,2.22
2023-02-12T10:49:03.281Z,3.30
2023-02-12T10:51:30.392Z,1.95
2023-02-12T10:53:57.128Z,4.22
2023-02-12T10:56:24.887Z,2.00
2023-02-12T10:58:51.647Z,2.42
2023-02-12T11:01:18.319Z,2.42
2023-02-12T11:03:45.041Z,2.30
2023-02-12T11:06:11.816Z,2.08
2023-02-12T11:08:39.291Z,2.85
2023-02-12T11:11:06.031Z,2.38
2023-02-12T11:13:32.813Z,4.18
2023-02-12T11:16:01.300Z,2.05
2023-02-12T11:18:28.316Z,1.73
2023-02-12T11:20:55.112Z,2.28
2023-02-12T11:23:21.778Z,2.17
2023-02-12T11:25:48.630Z,2.85
2023-02-12T11:28:15.630Z,2.95
2023-02-12T11:30:42.633Z,2.70
2023-02-12T11:33:09.381Z,3.28
2023-02-12T11:35:36.190Z,3.83
2023-02-12T11:38:02.850Z,2.10
2023-02-12T11:40:29.595Z,2.38
2023-02-12T11:42:56.439Z,2.83
2023-02-12T11:45:23.155Z,3.20
2023-02-12T11:47:49.959Z,2.45
2023-02-12T11:50:16.730Z,8.93
2023-02-12T11:52:43.388Z,3.78
2023-02-12T11:55:10.184Z,2.63
2023-02-12T11:57:36.943Z,2.78
2023-02-12T12:00:03.872Z,1.77
2023-02-12T12:02:30.592Z,2.30
2023-02-12T12:04:57.257Z,4.07
2023-02-12T12:07:24.012Z,2.20
2023-02-12T12:09:51.349Z,2.55
2023-02-12T12:12:18.290Z,3.78
2023-02-12T12:15:04.019Z,2.05
2023-02-12T12:17:49.381Z,2.42
2023-02-12T12:20:16.051Z,2.00
2023-02-12T12:22:42.751Z,1.77
2023-02-12T12:25:09.428Z,2.88
2023-02-12T12:27:54.742Z,3.65
2023-02-12T12:30:21.520Z,4.40
2023-02-12T12:32:48.295Z,3.47
2023-02-12T12:35:14.951Z,2.55
2023-02-12T12:37:41.593Z,2.35
2023-02-12T12:40:08.223Z,2.83
2023-02-12T12:42:34.860Z,2.60
2023-02-12T12:45:03.207Z,3.03
2023-02-12T12:47:29.886Z,2.35
2023-02-12T12:49:56.533Z,2.42
2023-02-12T12:52:23.238Z,1.88
2023-02-12T12:54:50.064Z,2.80
2023-02-12T12:57:17.078Z,2.00
2023-02-12T12:59:43.837Z,3.55
2023-02-12T13:02:10.552Z,2.15
2023-02-12T13:04:37.313Z,2.40
2023-02-12T13:07:04.031Z,2.13
2023-02-12T13:09:30.883Z,2.95
2023-02-12T13:11:57.720Z,2.38
2023-02-12T13:14:24.495Z,3.75
2023-02-12T13:16:51.256Z,6.03
2023-02-12T13:19:17.942Z,2.28
2023-02-12T13:21:44.629Z,4.72
2023-02-12T13:24:11.366Z,3.75
2023-02-12T13:26:41.750Z,2.58
2023-02-12T13:29:08.354Z,2.75
2023-02-12T13:31:35.298Z,2.58
2023-02-12T13:34:02.062Z,3.95
2023-02-12T13:36:28.813Z,2.72
2023-02-12T13:38:56.671Z,6.63
2023-02-12T13:41:23.355Z,2.13
2023-02-12T13:43:50.081Z,2.50
2023-02-12T13:46:16.803Z,2.63
2023-02-12T13:48:43.524Z,2.63
2023-02-12T13:51:10.202Z,2.53
2023-02-12T13:53:37.261Z,1.83
2023-02-12T13:56:03.957Z,2.50
2023-02-12T13:58:39.776Z,3.22
2023-02-12T14:01:08.773Z,3.45
2023-02-12T14:03:36.519Z,3.00
2023-02-12T14:06:03.210Z,2.45
2023-02-12T14:08:29.999Z,3.53
2023-02-12T14:10:56.800Z,3.10
2023-02-12T14:13:23.462Z,3.00
2023-02-12T14:15:51.274Z,3.60
2023-02-12T14:18:18.017Z,4.05
2023-02-12T14:20:44.888Z,5.18
2023-02-12T14:23:11.598Z,8.68
2023-02-12T14:25:38.265Z,9.45
2023-02-12T14:28:04.958Z,11.85
2023-02-12T14:30:31.710Z,4.97
2023-02-12T14:32:58.339Z,4.65
2023-02-12T14:35:25.001Z,4.05
2023-02-12T14:37:51.688Z,4.63
2023-02-12T14:40:18.701Z,3.58
2023-02-12T14:42:45.438Z,4.32
2023-02-12T14:45:12.088Z,3.05
2023-02-12T14:47:38.795Z,3.65
2023-02-12T14:50:05.429Z,4.78
2023-02-12T14:52:32.079Z,4.32
2023-02-12T14:54:58.779Z,4.22
2023-02-12T14:57:25.542Z,3.60
2023-02-12T14:59:52.300Z,8.00
2023-02-12T15:02:18.916Z,9.32
2023-02-12T15:04:45.598Z,5.47
2023-02-12T15:07:13.156Z,4.13
2023-02-12T15:09:41.610Z,4.57
2023-02-12T15:12:08.231Z,6.93
2023-02-12T15:14:34.901Z,9.63
2023-02-12T15:17:01.621Z,7.57
2023-02-12T15:19:28.245Z,6.88
2023-02-12T15:21:54.936Z,6.47
2023-02-12T15:24:22.501Z,8.00
2023-02-12T15:26:49.213Z,8.95
2023-02-12T15:29:15.845Z,7.75
2023-02-12T15:31:42.578Z,5.32
2023-02-12T15:34:09.357Z,6.50
2023-02-12T15:36:36.143Z,5.63
2023-02-12T15:39:04.178Z,6.68
2023-02-12T15:41:30.854Z,6.13
2023-02-12T15:43:57.604Z,7.93
2023-02-12T15:46:24.407Z,7.15
2023-02-12T15:48:51.178Z,7.18
2023-02-12T15:51:17.879Z,4.72
2023-02-12T15:53:44.880Z,4.82
2023-02-12T15:56:11.679Z,7.72
2023-02-12T15:58:38.577Z,5.20
2023-02-12T16:01:05.216Z,8.88
2023-02-12T16:03:32.005Z,4.15
2023-02-12T16:05:58.913Z,5.18
2023-02-12T16:08:25.727Z,8.05
2023-02-12T16:10:52.385Z,6.55
2023-02-12T16:13:19.027Z,5.30
2023-02-12T16:15:45.692Z,7.72
2023-02-12T16:18:12.505Z,7.78
2023-02-12T16:20:39.440Z,8.15
2023-02-12T16:23:06.119Z,4.97
2023-02-12T16:25:33.202Z,5.72
2023-02-12T16:28:00.180Z,8.80
2023-02-12T16:30:26.891Z,9.93
2023-02-12T16:32:53.540Z,5.20
2023-02-12T16:35:20.286Z,11.73
2023-02-12T16:37:46.911Z,8.27
2023-02-12T16:40:13.645Z,9.00
2023-02-12T16:42:40.238Z,13.73
2023-02-12T16:45:06.850Z,8.05
2023-02-12T16:47:33.810Z,8.98
2023-02-12T16:50:00.711Z,5.05
2023-02-12T16:52:27.312Z,5.57
2023-02-12T16:54:54.025Z,7.30
2023-02-12T16:57:20.929Z,6.50
2023-02-12T16:59:48.141Z,5.32
2023-02-12T17:02:14.778Z,9.27
2023-02-12T17:04:41.456Z,8.07
2023-02-12T17:07:08.163Z,6.70
2023-02-12T17:09:34.793Z,5.45
2023-02-12T17:12:01.470Z,5.90
2023-02-12T17:14:28.180Z,4.65
2023-02-12T17:16:54.936Z,5.82
2023-02-12T17:19:22.046Z,4.97
2023-02-12T17:21:49.768Z,5.20
2023-02-12T17:24:16.395Z,7.63
2023-02-12T17:26:43.120Z,5.57
2023-02-12T17:29:09.722Z,5.38
2023-02-12T17:31:37.700Z,8.00
2023-02-12T17:34:04.404Z,5.95
2023-02-12T17:36:31.067Z,5.80
2023-02-12T17:38:57.696Z,7.00
2023-02-12T17:41:24.612Z,7.68
2023-02-12T17:43:51.267Z,8.13
2023-02-12T17:46:17.965Z,14.57
2023-02-12T17:48:44.662Z,10.10
2023-02-12T17:51:14.645Z,8.60
2023-02-12T17:53:41.320Z,14.98
2023-02-12T17:56:07.926Z,13.32
2023-02-12T17:58:35.108Z,8.88
2023-02-12T18:01:01.782Z,10.57
2023-02-12T18:03:28.541Z,5.68
2023-02-12T18:05:55.314Z,4.80
2023-02-12T18:08:22.281Z,6.30
2023-02-12T18:10:48.959Z,10.43
2023-02-12T18:13:15.609Z,9.23
2023-02-12T18:15:42.339Z,7.53
2023-02-12T18:18:09.125Z,5.72
2023-02-12T18:20:35.779Z,7.32
2023-02-12T18:23:03.516Z,7.85
2023-02-12T18:25:32.089Z,7.40
2023-02-12T18:28:01.482Z,5.47
2023-02-12T18:30:28.255Z,6.32
2023-02-12T18:32:54.876Z,7.22
2023-02-12T18:35:21.725Z,5.32
2023-02-12T18:37:48.666Z,6.95
2023-02-12T18:40:15.317Z,5.18
2023-02-12T18:42:41.941Z,5.95
2023-02-12T18:45:08.665Z,6.07
2023-02-12T18:47:35.448Z,6.22
2023-02-12T18:50:02.240Z,5.28
2023-02-12T18:52:29.001Z,6.15
2023-02-12T18:54:55.768Z,7.85
2023-02-12T18:57:24.743Z,8.90
2023-02-12T18:59:51.487Z,5.72
2023-02-12T19:02:18.394Z,11.18
2023-02-12T19:04:45.087Z,13.30
2023-02-12T19:07:11.773Z,8.60
2023-02-12T19:09:38.417Z,8.32
2023-02-12T19:12:06.938Z,8.50
2023-02-12T19:14:34.058Z,9.40
2023-02-12T19:17:00.829Z,8.93
2023-02-12T19:19:27.656Z,5.57
2023-02-12T19:21:54.432Z,8.43
2023-02-12T19:24:21.224Z,7.70
2023-02-12T19:26:47.910Z,7.55
2023-02-12T19:29:14.752Z,11.38
2023-02-12T19:31:41.519Z,8.77
2023-02-12T19:34:08.291Z,12.70
2023-02-12T19:36:35.541Z,8.13
2023-02-12T19:39:02.401Z,8.73
2023-02-12T19:41:29.135Z,12.40
2023-02-12T19:43:56.188Z,10.18
2023-02-12T19:46:23.033Z,11.73
2023-02-12T19:48:50.105Z,8.80
2023-02-12T19:51:16.763Z,12.68
2023-02-12T19:53:43.461Z,15.60
2023-02-12T19:56:10.877Z,12.85
2023-02-12T19:58:37.614Z,18.23
2023-02-12T20:01:04.333Z,40.75
2023-02-12T20:03:31.022Z,60.45
2023-02-12T20:05:57.740Z,35.70
2023-02-12T20:08:24.356Z,21.33
2023-02-12T20:10:50.995Z,15.43
2023-02-12T20:13:19.826Z,14.80
2023-02-12T20:15:46.497Z,16.25
2023-02-12T20:18:13.181Z,13.40
2023-02-12T20:20:40.163Z,16.17
2023-02-12T20:23:07.149Z,13.73
2023-02-12T20:25:33.858Z,14.77
2023-02-12T20:28:00.851Z,18.83
2023-02-12T20:30:27.586Z,17.90
2023-02-12T20:32:54.193Z,12.45
2023-02-12T20:35:20.852Z,13.25
2023-02-12T20:37:47.643Z,17.90
2023-02-12T20:40:14.266Z,10.43
2023-02-12T20:42:40.985Z,12.88
2023-02-12T20:45:10.135Z,16.00
2023-02-12T20:47:37.261Z,11.30
2023-02-12T20:50:04.182Z,12.52
2023-02-12T20:52:31.853Z,18.88
2023-02-12T20:55:01.077Z,14.63
2023-02-12T20:57:27.814Z,12.63
2023-02-12T20:59:54.824Z,13.07
2023-02-12T21:02:22.396Z,17.08
2023-02-12T21:04:49.484Z,14.60
2023-02-12T21:07:16.685Z,15.75
2023-02-12T21:09:43.999Z,13.13
2023-02-12T21:12:11.060Z,16.80
2023-02-12T21:14:38.038Z,14.23
2023-02-12T21:17:04.825Z,17.25
2023-02-12T21:19:31.743Z,19.00
2023-02-12T21:21:59.096Z,14.68
2023-02-12T21:24:25.968Z,14.73
2023-02-12T21:26:52.688Z,14.60
2023-02-12T21:29:19.727Z,15.32
2023-02-12T21:31:46.579Z,15.02
2023-02-12T21:34:13.756Z,13.50
2023-02-12T21:36:40.441Z,15.63
2023-02-12T21:39:07.084Z,15.85
2023-02-12T21:41:35.590Z,14.80
2023-02-12T21:44:02.285Z,14.93
2023-02-12T21:46:29.022Z,16.45
2023-02-12T21:48:55.667Z,15.13
2023-02-12T21:51:22.717Z,29.95
2023-02-12T21:53:49.718Z,17.70
2023-02-12T21:56:16.716Z,15.85
2023-02-12T21:58:43.916Z,21.75
2023-02-12T22:01:10.676Z,23.23
2023-02-12T22:03:37.694Z,17.73
2023-02-12T22:06:04.851Z,20.92
2023-02-12T22:08:31.668Z,17.27
2023-02-12T22:10:58.915Z,22.48
2023-02-12T22:13:26.314Z,22.05
2023-02-12T22:15:53.207Z,22.38
2023-02-12T22:18:20.276Z,21.52
2023-02-12T22:20:47.343Z,25.58
2023-02-12T22:23:14.051Z,28.55
2023-02-12T22:25:41.011Z,28.15
2023-02-12T22:28:07.818Z,27.60
2023-02-12T22:30:34.648Z,27.05
2023-02-12T22:33:01.628Z,30.73
2023-02-12T22:35:28.709Z,32.25
2023-02-12T22:37:55.382Z,37.97
2023-02-12T22:40:22.189Z,30.85
2023-02-12T22:42:48.905Z,33.65
2023-02-12T22:45:15.736Z,33.85
2023-02-12T22:47:42.820Z,35.95
2023-02-12T22:50:09.434Z,32.35
2023-02-12T22:52:36.143Z,31.70
2023-02-12T22:55:03.118Z,34.58
2023-02-12T22:57:29.930Z,28.35
2023-02-12T22:59:56.676Z,32.78
2023-02-12T23:02:23.343Z,30.10
2023-02-12T23:04:50.060Z,24.83
2023-02-12T23:07:16.704Z,29.35
2023-02-12T23:09:43.426Z,41.40
2023-02-12T23:12:11.317Z,36.38
2023-02-12T23:14:38.258Z,30.38
2023-02-12T23:17:04.910Z,45.42
2023-02-12T23:19:31.646Z,35.28
2023-02-12T23:21:58.294Z,38.60
2023-02-12T23:24:25.866Z,45.08
2023-02-12T23:26:53.087Z,38.17
2023-02-12T23:29:19.818Z,38.53
2023-02-12T23:31:46.603Z,32.63
2023-02-12T23:34:13.317Z,36.70
2023-02-12T23:36:39.970Z,37.63
2023-02-12T23:39:07.021Z,39.58
2023-02-12T23:41:33.711Z,31.92
2023-02-12T23:44:00.800Z,31.77
2023-02-12T23:46:27.833Z,33.22
2023-02-12T23:48:54.496Z,36.65
2023-02-12T23:51:21.203Z,29.95
2023-02-12T23:53:48.226Z,34.78
2023-02-12T23:56:15.223Z,33.92
2023-02-12T23:58:42.472Z,36.90
